sensor_id;sensor_type;location;lat;lon;timestamp;P1;durP1;ratioP1;P2;durP2;ratioP2
19167;SDS011;9716;53.114;18.040;2023-03-23T00:02:04;15.90;;;7.78;;
19167;SDS011;9716;53.114;18.040;2023-03-23T00:04:33;12.13;;;7.25;;
19167;SDS011;9716;53.114;18.040;2023-03-23T00:07:00;19.83;;;8.77;;
19167;SDS011;9716;53.114;18.040;2023-03-23T00:09:28;17.38;;;8.20;;
19167;SDS011;9716;53.114;18.040;2023-03-23T00:11:59;14.40;;;7.60;;
19167;SDS011;9716;53.114;18.040;2023-03-23T00:14:31;15.63;;;8.60;;
19167;SDS011;9716;53.114;18.040;2023-03-23T00:17:06;17.58;;;8.07;;
19167;SDS011;9716;53.114;18.040;2023-03-23T00:19:38;18.38;;;8.00;;
19167;SDS011;9716;53.114;18.040;2023-03-23T00:22:11;20.55;;;7.82;;
19167;SDS011;9716;53.114;18.040;2023-03-23T00:24:40;19.70;;;8.05;;
19167;SDS011;9716;53.114;18.040;2023-03-23T00:27:08;16.63;;;8.25;;
19167;SDS011;9716;53.114;18.040;2023-03-23T00:29:38;19.23;;;7.75;;
19167;SDS011;9716;53.114;18.040;2023-03-23T00:32:05;13.02;;;7.60;;
19167;SDS011;9716;53.114;18.040;2023-03-23T00:34:39;13.85;;;6.88;;
19167;SDS011;9716;53.114;18.040;2023-03-23T00:37:08;25.17;;;9.00;;
19167;SDS011;9716;53.114;18.040;2023-03-23T00:39:37;21.60;;;7.75;;
19167;SDS011;9716;53.114;18.040;2023-03-23T00:42:11;19.25;;;7.18;;
19167;SDS011;9716;53.114;18.040;2023-03-23T00:44:40;11.68;;;6.18;;
19167;SDS011;9716;53.114;18.040;2023-03-23T00:47:08;17.00;;;7.53;;
19167;SDS011;9716;53.114;18.040;2023-03-23T00:49:36;12.75;;;6.70;;
19167;SDS011;9716;53.114;18.040;2023-03-23T00:52:06;15.10;;;7.40;;
19167;SDS011;9716;53.114;18.040;2023-03-23T00:54:34;12.63;;;7.35;;
19167;SDS011;9716;53.114;18.040;2023-03-23T00:57:03;14.88;;;7.43;;
19167;SDS011;9716;53.114;18.040;2023-03-23T00:59:31;17.83;;;7.47;;
19167;SDS011;9716;53.114;18.040;2023-03-23T01:01:59;16.35;;;7.63;;
19167;SDS011;9716;53.114;18.040;2023-03-23T01:04:26;19.45;;;7.60;;
19167;SDS011;9716;53.114;18.040;2023-03-23T01:06:58;25.13;;;7.03;;
19167;SDS011;9716;53.114;18.040;2023-03-23T01:09:26;18.15;;;6.15;;
19167;SDS011;9716;53.114;18.040;2023-03-23T01:11:54;11.68;;;6.35;;
19167;SDS011;9716;53.114;18.040;2023-03-23T01:14:22;10.50;;;6.20;;
19167;SDS011;9716;53.114;18.040;2023-03-23T01:16:50;15.20;;;7.10;;
19167;SDS011;9716;53.114;18.040;2023-03-23T01:19:18;13.90;;;7.07;;
19167;SDS011;9716;53.114;18.040;2023-03-23T01:21:45;12.95;;;6.78;;
19167;SDS011;9716;53.114;18.040;2023-03-23T01:24:14;13.35;;;6.90;;
19167;SDS011;9716;53.114;18.040;2023-03-23T01:26:41;14.63;;;8.10;;
19167;SDS011;9716;53.114;18.040;2023-03-23T01:29:09;14.75;;;7.07;;
19167;SDS011;9716;53.114;18.040;2023-03-23T01:31:36;12.27;;;7.45;;
19167;SDS011;9716;53.114;18.040;2023-03-23T01:34:03;15.40;;;7.30;;
19167;SDS011;9716;53.114;18.040;2023-03-23T01:36:31;14.27;;;7.53;;
19167;SDS011;9716;53.114;18.040;2023-03-23T01:39:00;11.55;;;7.13;;
19167;SDS011;9716;53.114;18.040;2023-03-23T01:41:30;13.50;;;7.78;;
19167;SDS011;9716;53.114;18.040;2023-03-23T01:44:00;16.92;;;5.90;;
19167;SDS011;9716;53.114;18.040;2023-03-23T01:46:30;16.00;;;7.40;;
19167;SDS011;9716;53.114;18.040;2023-03-23T01:49:00;15.35;;;7.07;;
19167;SDS011;9716;53.114;18.040;2023-03-23T01:51:34;14.88;;;7.20;;
19167;SDS011;9716;53.114;18.040;2023-03-23T01:54:04;18.27;;;7.47;;
19167;SDS011;9716;53.114;18.040;2023-03-23T01:56:36;12.95;;;7.47;;
19167;SDS011;9716;53.114;18.040;2023-03-23T01:59:07;9.65;;;6.50;;
19167;SDS011;9716;53.114;18.040;2023-03-23T02:01:36;23.70;;;8.10;;
19167;SDS011;9716;53.114;18.040;2023-03-23T02:04:05;16.58;;;7.70;;
19167;SDS011;9716;53.114;18.040;2023-03-23T02:06:34;11.75;;;6.63;;
19167;SDS011;9716;53.114;18.040;2023-03-23T02:09:02;10.90;;;6.90;;
19167;SDS011;9716;53.114;18.040;2023-03-23T02:11:31;16.48;;;6.97;;
19167;SDS011;9716;53.114;18.040;2023-03-23T02:14:01;18.30;;;7.53;;
19167;SDS011;9716;53.114;18.040;2023-03-23T02:16:31;13.50;;;6.95;;
19167;SDS011;9716;53.114;18.040;2023-03-23T02:19:07;15.60;;;6.88;;
19167;SDS011;9716;53.114;18.040;2023-03-23T02:25:04;16.70;;;7.40;;
19167;SDS011;9716;53.114;18.040;2023-03-23T02:27:52;15.82;;;6.93;;
19167;SDS011;9716;53.114;18.040;2023-03-23T02:30:50;15.18;;;7.30;;
19167;SDS011;9716;53.114;18.040;2023-03-23T02:33:41;16.27;;;6.47;;
19167;SDS011;9716;53.114;18.040;2023-03-23T02:36:17;15.80;;;7.32;;
19167;SDS011;9716;53.114;18.040;2023-03-23T02:39:00;18.75;;;7.50;;
19167;SDS011;9716;53.114;18.040;2023-03-23T02:41:36;18.23;;;8.45;;
19167;SDS011;9716;53.114;18.040;2023-03-23T02:44:07;21.05;;;7.72;;
19167;SDS011;9716;53.114;18.040;2023-03-23T02:46:37;14.13;;;7.50;;
19167;SDS011;9716;53.114;18.040;2023-03-23T02:49:07;12.85;;;7.50;;
19167;SDS011;9716;53.114;18.040;2023-03-23T02:51:36;16.48;;;7.35;;
19167;SDS011;9716;53.114;18.040;2023-03-23T02:54:04;12.25;;;7.15;;
19167;SDS011;9716;53.114;18.040;2023-03-23T02:56:33;15.30;;;8.48;;
19167;SDS011;9716;53.114;18.040;2023-03-23T02:59:02;15.00;;;7.28;;
19167;SDS011;9716;53.114;18.040;2023-03-23T03:01:47;15.07;;;6.97;;
19167;SDS011;9716;53.114;18.040;2023-03-23T03:04:25;13.68;;;6.80;;
19167;SDS011;9716;53.114;18.040;2023-03-23T03:10:02;15.63;;;7.68;;
19167;SDS011;9716;53.114;18.040;2023-03-23T03:12:36;14.15;;;7.45;;
19167;SDS011;9716;53.114;18.040;2023-03-23T03:15:12;18.70;;;8.23;;
19167;SDS011;9716;53.114;18.040;2023-03-23T03:17:52;18.05;;;7.55;;
19167;SDS011;9716;53.114;18.040;2023-03-23T03:20:27;22.02;;;8.13;;
19167;SDS011;9716;53.114;18.040;2023-03-23T03:22:56;17.55;;;8.18;;
19167;SDS011;9716;53.114;18.040;2023-03-23T03:25:25;14.40;;;7.45;;
19167;SDS011;9716;53.114;18.040;2023-03-23T03:27:54;20.27;;;8.25;;
19167;SDS011;9716;53.114;18.040;2023-03-23T03:30:24;11.43;;;7.10;;
19167;SDS011;9716;53.114;18.040;2023-03-23T03:32:56;18.63;;;6.88;;
19167;SDS011;9716;53.114;18.040;2023-03-23T03:35:25;16.65;;;8.02;;
19167;SDS011;9716;53.114;18.040;2023-03-23T03:37:56;13.38;;;7.63;;
19167;SDS011;9716;53.114;18.040;2023-03-23T03:40:25;14.10;;;7.63;;
19167;SDS011;9716;53.114;18.040;2023-03-23T03:42:53;11.95;;;7.72;;
19167;SDS011;9716;53.114;18.040;2023-03-23T03:45:20;15.63;;;8.43;;
19167;SDS011;9716;53.114;18.040;2023-03-23T03:47:48;23.52;;;7.95;;
19167;SDS011;9716;53.114;18.040;2023-03-23T03:50:16;15.35;;;7.78;;
19167;SDS011;9716;53.114;18.040;2023-03-23T03:52:45;19.15;;;7.75;;
19167;SDS011;9716;53.114;18.040;2023-03-23T03:55:12;12.15;;;7.47;;
19167;SDS011;9716;53.114;18.040;2023-03-23T03:57:40;16.60;;;7.82;;
19167;SDS011;9716;53.114;18.040;2023-03-23T04:00:08;14.30;;;7.45;;
19167;SDS011;9716;53.114;18.040;2023-03-23T04:02:40;19.98;;;8.52;;
19167;SDS011;9716;53.114;18.040;2023-03-23T04:05:08;21.02;;;7.82;;
19167;SDS011;9716;53.114;18.040;2023-03-23T04:07:37;12.52;;;7.25;;
19167;SDS011;9716;53.114;18.040;2023-03-23T04:10:07;12.68;;;7.20;;
19167;SDS011;9716;53.114;18.040;2023-03-23T04:12:35;17.13;;;7.70;;
19167;SDS011;9716;53.114;18.040;2023-03-23T04:15:18;14.95;;;6.88;;
19167;SDS011;9716;53.114;18.040;2023-03-23T04:17:45;18.63;;;7.93;;
19167;SDS011;9716;53.114;18.040;2023-03-23T04:20:12;11.57;;;7.35;;
19167;SDS011;9716;53.114;18.040;2023-03-23T04:22:43;15.10;;;7.60;;
19167;SDS011;9716;53.114;18.040;2023-03-23T04:25:16;17.55;;;8.00;;
19167;SDS011;9716;53.114;18.040;2023-03-23T04:27:47;18.75;;;7.35;;
19167;SDS011;9716;53.114;18.040;2023-03-23T04:30:18;17.08;;;6.95;;
19167;SDS011;9716;53.114;18.040;2023-03-23T04:32:47;14.57;;;7.22;;
19167;SDS011;9716;53.114;18.040;2023-03-23T04:35:18;15.23;;;7.47;;
19167;SDS011;9716;53.114;18.040;2023-03-23T04:37:46;14.13;;;7.30;;
19167;SDS011;9716;53.114;18.040;2023-03-23T04:40:17;16.02;;;7.57;;
19167;SDS011;9716;53.114;18.040;2023-03-23T04:42:45;18.08;;;7.45;;
19167;SDS011;9716;53.114;18.040;2023-03-23T04:45:13;14.88;;;8.05;;
19167;SDS011;9716;53.114;18.040;2023-03-23T04:47:47;10.98;;;6.20;;
19167;SDS011;9716;53.114;18.040;2023-03-23T04:50:19;20.75;;;7.28;;
19167;SDS011;9716;53.114;18.040;2023-03-23T04:52:49;15.05;;;7.95;;
19167;SDS011;9716;53.114;18.040;2023-03-23T04:55:20;15.48;;;6.65;;
19167;SDS011;9716;53.114;18.040;2023-03-23T04:57:48;14.70;;;7.68;;
19167;SDS011;9716;53.114;18.040;2023-03-23T05:00:15;14.93;;;6.95;;
19167;SDS011;9716;53.114;18.040;2023-03-23T05:02:44;15.18;;;7.85;;
19167;SDS011;9716;53.114;18.040;2023-03-23T05:05:17;14.93;;;6.70;;
19167;SDS011;9716;53.114;18.040;2023-03-23T05:07:45;15.27;;;6.78;;
19167;SDS011;9716;53.114;18.040;2023-03-23T05:10:13;13.73;;;8.23;;
19167;SDS011;9716;53.114;18.040;2023-03-23T05:12:43;11.65;;;6.88;;
19167;SDS011;9716;53.114;18.040;2023-03-23T05:15:12;12.98;;;5.95;;
19167;SDS011;9716;53.114;18.040;2023-03-23T05:17:41;12.55;;;6.65;;
19167;SDS011;9716;53.114;18.040;2023-03-23T05:20:10;14.38;;;6.47;;
19167;SDS011;9716;53.114;18.040;2023-03-23T05:22:40;15.90;;;6.50;;
19167;SDS011;9716;53.114;18.040;2023-03-23T05:25:09;14.82;;;6.93;;
19167;SDS011;9716;53.114;18.040;2023-03-23T05:27:37;15.57;;;6.65;;
19167;SDS011;9716;53.114;18.040;2023-03-23T05:30:09;11.55;;;5.93;;
19167;SDS011;9716;53.114;18.040;2023-03-23T05:32:37;11.77;;;6.28;;
19167;SDS011;9716;53.114;18.040;2023-03-23T05:35:05;13.52;;;6.28;;
19167;SDS011;9716;53.114;18.040;2023-03-23T05:37:33;12.65;;;5.35;;
19167;SDS011;9716;53.114;18.040;2023-03-23T05:40:00;10.93;;;5.68;;
19167;SDS011;9716;53.114;18.040;2023-03-23T05:42:32;13.60;;;6.05;;
19167;SDS011;9716;53.114;18.040;2023-03-23T05:45:01;11.40;;;5.50;;
19167;SDS011;9716;53.114;18.040;2023-03-23T05:47:31;9.85;;;4.78;;
19167;SDS011;9716;53.114;18.040;2023-03-23T05:49:58;10.52;;;5.20;;
19167;SDS011;9716;53.114;18.040;2023-03-23T05:52:26;10.98;;;5.50;;
19167;SDS011;9716;53.114;18.040;2023-03-23T05:54:53;10.60;;;5.47;;
19167;SDS011;9716;53.114;18.040;2023-03-23T05:57:21;12.13;;;4.93;;
19167;SDS011;9716;53.114;18.040;2023-03-23T05:59:48;9.50;;;5.05;;
19167;SDS011;9716;53.114;18.040;2023-03-23T06:02:15;11.15;;;5.47;;
19167;SDS011;9716;53.114;18.040;2023-03-23T06:04:44;18.13;;;5.35;;
19167;SDS011;9716;53.114;18.040;2023-03-23T06:07:14;10.18;;;5.55;;
19167;SDS011;9716;53.114;18.040;2023-03-23T06:09:42;7.05;;;4.47;;
19167;SDS011;9716;53.114;18.040;2023-03-23T06:12:10;9.40;;;4.60;;
19167;SDS011;9716;53.114;18.040;2023-03-23T06:14:37;11.10;;;5.07;;
19167;SDS011;9716;53.114;18.040;2023-03-23T06:17:05;7.45;;;4.82;;
19167;SDS011;9716;53.114;18.040;2023-03-23T06:19:33;9.27;;;4.18;;
19167;SDS011;9716;53.114;18.040;2023-03-23T06:22:02;9.95;;;4.93;;
19167;SDS011;9716;53.114;18.040;2023-03-23T06:24:30;12.43;;;4.93;;
19167;SDS011;9716;53.114;18.040;2023-03-23T06:26:59;12.55;;;4.35;;
19167;SDS011;9716;53.114;18.040;2023-03-23T06:29:27;8.48;;;4.43;;
19167;SDS011;9716;53.114;18.040;2023-03-23T06:31:55;9.13;;;4.53;;
19167;SDS011;9716;53.114;18.040;2023-03-23T06:34:28;9.07;;;4.95;;
19167;SDS011;9716;53.114;18.040;2023-03-23T06:36:56;16.80;;;4.22;;
19167;SDS011;9716;53.114;18.040;2023-03-23T06:39:25;9.10;;;4.25;;
19167;SDS011;9716;53.114;18.040;2023-03-23T06:41:53;6.63;;;3.35;;
19167;SDS011;9716;53.114;18.040;2023-03-23T06:44:20;7.28;;;3.60;;
19167;SDS011;9716;53.114;18.040;2023-03-23T06:46:47;7.57;;;3.58;;
19167;SDS011;9716;53.114;18.040;2023-03-23T06:49:15;10.20;;;3.97;;
19167;SDS011;9716;53.114;18.040;2023-03-23T06:51:42;7.40;;;4.00;;
19167;SDS011;9716;53.114;18.040;2023-03-23T06:54:10;9.50;;;4.10;;
19167;SDS011;9716;53.114;18.040;2023-03-23T06:56:39;9.85;;;4.10;;
19167;SDS011;9716;53.114;18.040;2023-03-23T06:59:06;7.05;;;3.70;;
19167;SDS011;9716;53.114;18.040;2023-03-23T07:01:35;6.25;;;4.47;;
19167;SDS011;9716;53.114;18.040;2023-03-23T07:04:03;6.97;;;3.50;;
19167;SDS011;9716;53.114;18.040;2023-03-23T07:06:31;9.80;;;3.38;;
19167;SDS011;9716;53.114;18.040;2023-03-23T07:08:58;10.82;;;4.07;;
19167;SDS011;9716;53.114;18.040;2023-03-23T07:11:25;7.28;;;3.63;;
19167;SDS011;9716;53.114;18.040;2023-03-23T07:13:54;8.30;;;3.55;;
19167;SDS011;9716;53.114;18.040;2023-03-23T07:16:21;5.60;;;3.25;;
19167;SDS011;9716;53.114;18.040;2023-03-23T07:18:48;5.30;;;2.72;;
19167;SDS011;9716;53.114;18.040;2023-03-23T07:21:16;5.85;;;3.58;;
19167;SDS011;9716;53.114;18.040;2023-03-23T07:23:43;17.45;;;3.10;;
19167;SDS011;9716;53.114;18.040;2023-03-23T07:26:12;6.88;;;3.13;;
19167;SDS011;9716;53.114;18.040;2023-03-23T07:28:39;6.07;;;3.45;;
19167;SDS011;9716;53.114;18.040;2023-03-23T07:31:08;14.05;;;3.20;;
19167;SDS011;9716;53.114;18.040;2023-03-23T07:33:35;4.78;;;3.05;;
19167;SDS011;9716;53.114;18.040;2023-03-23T07:36:03;6.10;;;2.75;;
19167;SDS011;9716;53.114;18.040;2023-03-23T07:38:31;4.07;;;2.85;;
19167;SDS011;9716;53.114;18.040;2023-03-23T07:40:59;9.05;;;2.72;;
19167;SDS011;9716;53.114;18.040;2023-03-23T07:43:26;2.08;;;1.77;;
19167;SDS011;9716;53.114;18.040;2023-03-23T07:45:54;8.95;;;2.42;;
19167;SDS011;9716;53.114;18.040;2023-03-23T07:48:23;5.03;;;2.58;;
19167;SDS011;9716;53.114;18.040;2023-03-23T07:50:56;5.70;;;2.95;;
19167;SDS011;9716;53.114;18.040;2023-03-23T07:53:25;6.53;;;2.80;;
19167;SDS011;9716;53.114;18.040;2023-03-23T07:55:52;3.30;;;2.35;;
19167;SDS011;9716;53.114;18.040;2023-03-23T07:58:19;5.70;;;2.65;;
19167;SDS011;9716;53.114;18.040;2023-03-23T08:00:47;3.42;;;2.40;;
19167;SDS011;9716;53.114;18.040;2023-03-23T08:03:15;5.28;;;2.00;;
19167;SDS011;9716;53.114;18.040;2023-03-23T08:05:45;6.68;;;2.75;;
19167;SDS011;9716;53.114;18.040;2023-03-23T08:08:12;6.18;;;2.38;;
19167;SDS011;9716;53.114;18.040;2023-03-23T08:10:40;3.33;;;2.22;;
19167;SDS011;9716;53.114;18.040;2023-03-23T08:13:07;2.05;;;1.85;;
19167;SDS011;9716;53.114;18.040;2023-03-23T08:15:35;2.75;;;1.50;;
19167;SDS011;9716;53.114;18.040;2023-03-23T08:18:03;3.97;;;2.10;;
19167;SDS011;9716;53.114;18.040;2023-03-23T08:20:31;2.97;;;1.88;;
19167;SDS011;9716;53.114;18.040;2023-03-23T08:23:00;3.25;;;1.95;;
19167;SDS011;9716;53.114;18.040;2023-03-23T08:25:29;4.03;;;1.50;;
19167;SDS011;9716;53.114;18.040;2023-03-23T08:27:57;6.10;;;1.92;;
19167;SDS011;9716;53.114;18.040;2023-03-23T08:30:27;2.83;;;1.42;;
19167;SDS011;9716;53.114;18.040;2023-03-23T08:32:58;4.80;;;2.15;;
19167;SDS011;9716;53.114;18.040;2023-03-23T08:35:26;2.83;;;1.90;;
19167;SDS011;9716;53.114;18.040;2023-03-23T08:37:54;2.78;;;1.83;;
19167;SDS011;9716;53.114;18.040;2023-03-23T08:40:24;2.28;;;1.80;;
19167;SDS011;9716;53.114;18.040;2023-03-23T08:42:53;3.50;;;1.73;;
19167;SDS011;9716;53.114;18.040;2023-03-23T08:45:22;3.83;;;2.00;;
19167;SDS011;9716;53.114;18.040;2023-03-23T08:47:50;4.78;;;2.28;;
19167;SDS011;9716;53.114;18.040;2023-03-23T08:50:21;1.75;;;1.30;;
19167;SDS011;9716;53.114;18.040;2023-03-23T08:52:52;3.92;;;1.92;;
19167;SDS011;9716;53.114;18.040;2023-03-23T08:55:20;2.70;;;1.65;;
19167;SDS011;9716;53.114;18.040;2023-03-23T08:57:51;6.68;;;1.95;;
19167;SDS011;9716;53.114;18.040;2023-03-23T09:00:19;3.45;;;1.75;;
19167;SDS011;9716;53.114;18.040;2023-03-23T09:02:50;3.80;;;1.92;;
19167;SDS011;9716;53.114;18.040;2023-03-23T09:05:19;13.85;;;2.15;;
19167;SDS011;9716;53.114;18.040;2023-03-23T09:07:50;3.28;;;1.58;;
19167;SDS011;9716;53.114;18.040;2023-03-23T09:10:19;2.53;;;1.50;;
19167;SDS011;9716;53.114;18.040;2023-03-23T09:12:51;2.50;;;1.80;;
19167;SDS011;9716;53.114;18.040;2023-03-23T09:15:23;2.95;;;1.73;;
19167;SDS011;9716;53.114;18.040;2023-03-23T09:17:53;2.70;;;1.50;;
19167;SDS011;9716;53.114;18.040;2023-03-23T09:20:23;4.55;;;1.85;;
19167;SDS011;9716;53.114;18.040;2023-03-23T09:22:52;3.70;;;1.42;;
19167;SDS011;9716;53.114;18.040;2023-03-23T09:25:22;2.92;;;2.00;;
19167;SDS011;9716;53.114;18.040;2023-03-23T09:27:54;3.13;;;1.45;;
19167;SDS011;9716;53.114;18.040;2023-03-23T09:30:23;1.42;;;1.20;;
19167;SDS011;9716;53.114;18.040;2023-03-23T09:32:52;1.98;;;1.30;;
19167;SDS011;9716;53.114;18.040;2023-03-23T09:35:20;1.95;;;1.70;;
19167;SDS011;9716;53.114;18.040;2023-03-23T09:37:49;1.52;;;1.33;;
19167;SDS011;9716;53.114;18.040;2023-03-23T09:40:18;3.58;;;1.67;;
19167;SDS011;9716;53.114;18.040;2023-03-23T09:42:51;3.67;;;1.80;;
19167;SDS011;9716;53.114;18.040;2023-03-23T09:45:42;1.75;;;1.58;;
19167;SDS011;9716;53.114;18.040;2023-03-23T09:48:20;2.75;;;1.88;;
19167;SDS011;9716;53.114;18.040;2023-03-23T09:50:57;2.40;;;1.55;;
19167;SDS011;9716;53.114;18.040;2023-03-23T09:53:30;4.10;;;1.50;;
19167;SDS011;9716;53.114;18.040;2023-03-23T09:56:02;1.70;;;1.30;;
19167;SDS011;9716;53.114;18.040;2023-03-23T09:58:40;2.45;;;1.48;;
19167;SDS011;9716;53.114;18.040;2023-03-23T10:01:13;2.72;;;1.42;;
19167;SDS011;9716;53.114;18.040;2023-03-23T10:03:46;1.48;;;1.35;;
19167;SDS011;9716;53.114;18.040;2023-03-23T10:06:16;1.95;;;1.65;;
19167;SDS011;9716;53.114;18.040;2023-03-23T10:08:45;2.22;;;1.52;;
19167;SDS011;9716;53.114;18.040;2023-03-23T10:11:17;3.10;;;0.90;;
19167;SDS011;9716;53.114;18.040;2023-03-23T10:14:03;2.22;;;1.38;;
19167;SDS011;9716;53.114;18.040;2023-03-23T10:16:37;2.03;;;1.60;;
19167;SDS011;9716;53.114;18.040;2023-03-23T10:19:10;2.15;;;1.65;;
19167;SDS011;9716;53.114;18.040;2023-03-23T10:21:46;3.25;;;1.33;;
19167;SDS011;9716;53.114;18.040;2023-03-23T10:24:20;2.00;;;1.50;;
19167;SDS011;9716;53.114;18.040;2023-03-23T10:26:54;1.77;;;1.50;;
19167;SDS011;9716;53.114;18.040;2023-03-23T10:29:31;5.55;;;1.90;;
19167;SDS011;9716;53.114;18.040;2023-03-23T10:32:09;2.33;;;1.85;;
19167;SDS011;9716;53.114;18.040;2023-03-23T10:34:41;3.95;;;2.20;;
19167;SDS011;9716;53.114;18.040;2023-03-23T10:37:16;2.13;;;1.42;;
19167;SDS011;9716;53.114;18.040;2023-03-23T10:39:48;1.60;;;1.42;;
19167;SDS011;9716;53.114;18.040;2023-03-23T10:42:26;2.05;;;1.60;;
19167;SDS011;9716;53.114;18.040;2023-03-23T10:44:57;5.07;;;1.95;;
19167;SDS011;9716;53.114;18.040;2023-03-23T10:47:27;2.90;;;1.52;;
19167;SDS011;9716;53.114;18.040;2023-03-23T10:49:56;2.53;;;2.03;;
19167;SDS011;9716;53.114;18.040;2023-03-23T10:52:28;1.77;;;1.40;;
19167;SDS011;9716;53.114;18.040;2023-03-23T10:55:01;2.28;;;1.55;;
19167;SDS011;9716;53.114;18.040;2023-03-23T10:57:31;2.13;;;1.77;;
19167;SDS011;9716;53.114;18.040;2023-03-23T11:00:02;5.38;;;1.85;;
19167;SDS011;9716;53.114;18.040;2023-03-23T11:02:38;2.95;;;1.92;;
19167;SDS011;9716;53.114;18.040;2023-03-23T11:05:13;2.30;;;1.52;;
19167;SDS011;9716;53.114;18.040;2023-03-23T11:07:51;4.32;;;1.77;;
19167;SDS011;9716;53.114;18.040;2023-03-23T11:10:21;1.90;;;1.70;;
19167;SDS011;9716;53.114;18.040;2023-03-23T11:12:51;2.47;;;1.77;;
19167;SDS011;9716;53.114;18.040;2023-03-23T11:15:27;3.63;;;1.77;;
19167;SDS011;9716;53.114;18.040;2023-03-23T11:17:58;1.73;;;1.58;;
19167;SDS011;9716;53.114;18.040;2023-03-23T11:20:27;5.45;;;1.70;;
19167;SDS011;9716;53.114;18.040;2023-03-23T11:22:57;3.75;;;2.08;;
19167;SDS011;9716;53.114;18.040;2023-03-23T11:25:25;2.42;;;1.40;;
19167;SDS011;9716;53.114;18.040;2023-03-23T11:27:53;4.80;;;2.35;;
19167;SDS011;9716;53.114;18.040;2023-03-23T11:30:24;2.58;;;1.80;;
19167;SDS011;9716;53.114;18.040;2023-03-23T11:32:58;4.82;;;1.75;;
19167;SDS011;9716;53.114;18.040;2023-03-23T11:35:28;4.55;;;1.73;;
19167;SDS011;9716;53.114;18.040;2023-03-23T11:37:59;1.80;;;1.27;;
19167;SDS011;9716;53.114;18.040;2023-03-23T11:40:27;2.70;;;1.98;;
19167;SDS011;9716;53.114;18.040;2023-03-23T11:42:58;2.30;;;1.58;;
19167;SDS011;9716;53.114;18.040;2023-03-23T11:45:35;2.80;;;1.48;;
19167;SDS011;9716;53.114;18.040;2023-03-23T11:48:09;2.67;;;1.55;;
19167;SDS011;9716;53.114;18.040;2023-03-23T11:50:47;3.67;;;1.63;;
19167;SDS011;9716;53.114;18.040;2023-03-23T11:53:22;1.55;;;1.33;;
19167;SDS011;9716;53.114;18.040;2023-03-23T11:55:57;1.63;;;1.52;;
19167;SDS011;9716;53.114;18.040;2023-03-23T11:58:40;2.10;;;1.45;;
19167;SDS011;9716;53.114;18.040;2023-03-23T12:01:11;5.80;;;1.60;;
19167;SDS011;9716;53.114;18.040;2023-03-23T12:03:56;2.05;;;1.40;;
19167;SDS011;9716;53.114;18.040;2023-03-23T12:07:05;2.28;;;1.55;;
19167;SDS011;9716;53.114;18.040;2023-03-23T12:09:44;6.53;;;1.85;;
19167;SDS011;9716;53.114;18.040;2023-03-23T12:12:18;1.63;;;1.15;;
19167;SDS011;9716;53.114;18.040;2023-03-23T12:14:56;3.13;;;1.88;;
19167;SDS011;9716;53.114;18.040;2023-03-23T12:17:34;2.95;;;1.92;;
19167;SDS011;9716;53.114;18.040;2023-03-23T12:20:15;2.35;;;1.30;;
19167;SDS011;9716;53.114;18.040;2023-03-23T12:23:03;1.77;;;1.25;;
19167;SDS011;9716;53.114;18.040;2023-03-23T12:25:56;3.20;;;1.80;;
19167;SDS011;9716;53.114;18.040;2023-03-23T12:28:40;3.80;;;1.88;;
19167;SDS011;9716;53.114;18.040;2023-03-23T12:31:19;2.17;;;1.15;;
19167;SDS011;9716;53.114;18.040;2023-03-23T12:33:55;1.95;;;1.35;;
19167;SDS011;9716;53.114;18.040;2023-03-23T12:36:35;1.88;;;1.20;;
19167;SDS011;9716;53.114;18.040;2023-03-23T12:42:11;1.95;;;1.25;;
19167;SDS011;9716;53.114;18.040;2023-03-23T12:44:44;2.72;;;1.30;;
19167;SDS011;9716;53.114;18.040;2023-03-23T12:47:17;1.65;;;1.33;;
19167;SDS011;9716;53.114;18.040;2023-03-23T12:50:10;2.10;;;1.05;;
19167;SDS011;9716;53.114;18.040;2023-03-23T12:52:45;1.55;;;1.30;;
19167;SDS011;9716;53.114;18.040;2023-03-23T12:55:18;2.05;;;1.48;;
19167;SDS011;9716;53.114;18.040;2023-03-23T12:57:51;0.90;;;0.90;;
19167;SDS011;9716;53.114;18.040;2023-03-23T13:00:25;3.15;;;1.60;;
19167;SDS011;9716;53.114;18.040;2023-03-23T13:02:58;13.10;;;1.58;;
19167;SDS011;9716;53.114;18.040;2023-03-23T13:05:35;1.52;;;1.10;;
19167;SDS011;9716;53.114;18.040;2023-03-23T13:08:09;1.17;;;1.00;;
19167;SDS011;9716;53.114;18.040;2023-03-23T13:10:42;1.77;;;1.50;;
19167;SDS011;9716;53.114;18.040;2023-03-23T13:13:17;4.53;;;1.45;;
19167;SDS011;9716;53.114;18.040;2023-03-23T13:15:49;1.75;;;1.25;;
19167;SDS011;9716;53.114;18.040;2023-03-23T13:18:25;1.95;;;1.40;;
19167;SDS011;9716;53.114;18.040;2023-03-23T13:21:05;2.72;;;1.67;;
19167;SDS011;9716;53.114;18.040;2023-03-23T13:23:40;2.28;;;1.67;;
19167;SDS011;9716;53.114;18.040;2023-03-23T13:26:11;1.63;;;1.50;;
19167;SDS011;9716;53.114;18.040;2023-03-23T13:28:48;1.67;;;1.55;;
19167;SDS011;9716;53.114;18.040;2023-03-23T13:31:24;1.27;;;1.17;;
19167;SDS011;9716;53.114;18.040;2023-03-23T13:34:02;2.85;;;1.58;;
19167;SDS011;9716;53.114;18.040;2023-03-23T13:36:33;13.48;;;1.98;;
19167;SDS011;9716;53.114;18.040;2023-03-23T13:39:03;3.05;;;1.40;;
19167;SDS011;9716;53.114;18.040;2023-03-23T13:41:34;3.45;;;1.27;;
19167;SDS011;9716;53.114;18.040;2023-03-23T13:44:18;2.90;;;1.55;;
19167;SDS011;9716;53.114;18.040;2023-03-23T13:46:53;2.88;;;1.17;;
19167;SDS011;9716;53.114;18.040;2023-03-23T13:49:22;1.58;;;1.02;;
19167;SDS011;9716;53.114;18.040;2023-03-23T13:51:58;2.10;;;1.45;;
19167;SDS011;9716;53.114;18.040;2023-03-23T13:54:50;8.45;;;1.75;;
19167;SDS011;9716;53.114;18.040;2023-03-23T13:57:20;2.22;;;1.30;;
19167;SDS011;9716;53.114;18.040;2023-03-23T13:59:56;3.45;;;1.90;;
19167;SDS011;9716;53.114;18.040;2023-03-23T14:02:34;3.83;;;1.25;;
19167;SDS011;9716;53.114;18.040;2023-03-23T14:05:08;5.45;;;2.03;;
19167;SDS011;9716;53.114;18.040;2023-03-23T14:07:59;5.22;;;1.73;;
19167;SDS011;9716;53.114;18.040;2023-03-23T14:10:33;2.20;;;1.67;;
19167;SDS011;9716;53.114;18.040;2023-03-23T14:13:02;1.17;;;1.08;;
19167;SDS011;9716;53.114;18.040;2023-03-23T14:15:37;2.30;;;1.30;;
19167;SDS011;9716;53.114;18.040;2023-03-23T14:18:11;1.20;;;1.10;;
19167;SDS011;9716;53.114;18.040;2023-03-23T14:20:41;1.48;;;1.17;;
19167;SDS011;9716;53.114;18.040;2023-03-23T14:23:15;1.40;;;1.27;;
19167;SDS011;9716;53.114;18.040;2023-03-23T14:25:44;3.13;;;1.35;;
19167;SDS011;9716;53.114;18.040;2023-03-23T14:28:21;0.90;;;0.82;;
19167;SDS011;9716;53.114;18.040;2023-03-23T14:30:49;3.58;;;1.38;;
19167;SDS011;9716;53.114;18.040;2023-03-23T14:33:20;4.85;;;1.23;;
19167;SDS011;9716;53.114;18.040;2023-03-23T14:35:47;1.55;;;1.30;;
19167;SDS011;9716;53.114;18.040;2023-03-23T14:38:18;2.17;;;1.40;;
19167;SDS011;9716;53.114;18.040;2023-03-23T14:40:49;8.30;;;1.67;;
19167;SDS011;9716;53.114;18.040;2023-03-23T14:43:17;3.05;;;1.52;;
19167;SDS011;9716;53.114;18.040;2023-03-23T14:45:54;3.17;;;1.40;;
19167;SDS011;9716;53.114;18.040;2023-03-23T14:48:23;2.72;;;1.30;;
19167;SDS011;9716;53.114;18.040;2023-03-23T14:50:52;1.23;;;1.15;;
19167;SDS011;9716;53.114;18.040;2023-03-23T14:53:24;2.65;;;1.15;;
19167;SDS011;9716;53.114;18.040;2023-03-23T14:55:59;1.95;;;1.38;;
19167;SDS011;9716;53.114;18.040;2023-03-23T14:58:29;6.15;;;1.27;;
19167;SDS011;9716;53.114;18.040;2023-03-23T15:00:58;1.98;;;1.27;;
19167;SDS011;9716;53.114;18.040;2023-03-23T15:03:31;0.90;;;0.90;;
19167;SDS011;9716;53.114;18.040;2023-03-23T15:06:03;2.45;;;1.30;;
19167;SDS011;9716;53.114;18.040;2023-03-23T15:08:35;3.05;;;1.33;;
19167;SDS011;9716;53.114;18.040;2023-03-23T15:11:04;1.50;;;1.38;;
19167;SDS011;9716;53.114;18.040;2023-03-23T15:13:34;2.47;;;1.35;;
19167;SDS011;9716;53.114;18.040;2023-03-23T15:16:06;10.32;;;1.38;;
19167;SDS011;9716;53.114;18.040;2023-03-23T15:18:39;0.90;;;0.90;;